Welcome to Des Moines Iowa Weather. I am an independent private personal weather station on the Northwest Side of Des Moines, Iowa. Just East of Windsor Heights and just West of Glendale . This site is also mobile friendly.

There are no active watches, warnings or advisories


Visit our other weather sites:

Historical Data

Weather Station Setup



Weather Underground History page Text

Daily Summary for November 10, 2017 Units:  English    Metric   Both
« Previous Day
Next Day »
Daily Weekly Monthly Yearly Custom
  High: Low: Average:
Temperature: 33.4 °F 17.5 °F 26.2 °F
Dew Point: 18.0 °F 8.0 °F 11.7 °F
Humidity: 67 % 44 % 55 %
Wind Speed: 7.0 mph 0.0 mph 1.7 mph
Wind Gust: 12.0 mph - -
Wind:- - ESE
Pressure: 30.59 in 30.30 in -
Precipitation: 0.00 in    
Historical Graphs
 
 
Tabular Data for November 10, 2017
Time Temperature Dew Point Pressure Wind Wind Speed Wind Gust Humidity Rainfall Rate (Hourly)
00:11 21.2 °F 10.0 °F 30.55 in Calm   6.0 mph 61 % 0.00 in
00:26 21.1 °F 9.0 °F 30.55 in NE 1.0 mph 5.0 mph 61 % 0.00 in
00:41 21.2 °F 10.0 °F 30.54 in NNE 2.0 mph 4.0 mph 61 % 0.00 in
00:57 21.2 °F 10.0 °F 30.56 in NNE 2.0 mph 4.0 mph 62 % 0.00 in
01:12 21.1 °F 9.0 °F 30.56 in Calm   4.0 mph 61 % 0.00 in
01:27 21.0 °F 9.0 °F 30.56 in ENE 1.0 mph 2.0 mph 60 % 0.00 in
01:42 20.8 °F 8.0 °F 30.56 in ENE 2.0 mph 4.0 mph 59 % 0.00 in
01:57 20.5 °F 9.0 °F 30.56 in Calm   4.0 mph 60 % 0.00 in
02:12 20.4 °F 8.0 °F 30.56 in ENE 1.0 mph 5.0 mph 60 % 0.00 in
02:27 20.1 °F 8.0 °F 30.56 in Calm   5.0 mph 60 % 0.00 in
02:42 19.9 °F 8.0 °F 30.55 in Calm   3.0 mph 61 % 0.00 in
02:57 19.6 °F 8.0 °F 30.55 in Calm   3.0 mph 62 % 0.00 in
03:12 19.3 °F 8.0 °F 30.55 in Calm   5.0 mph 62 % 0.00 in
03:27 19.1 °F 8.0 °F 30.56 in East 1.0 mph 4.0 mph 62 % 0.00 in
03:42 18.9 °F 8.0 °F 30.56 in NNE 2.0 mph 5.0 mph 63 % 0.00 in
03:57 18.9 °F 8.0 °F 30.56 in NE 2.0 mph 5.0 mph 63 % 0.00 in
04:12 18.7 °F 8.0 °F 30.57 in Calm   5.0 mph 63 % 0.00 in
04:27 18.4 °F 8.0 °F 30.57 in ENE 3.0 mph 8.0 mph 64 % 0.00 in
04:42 18.1 °F 8.0 °F 30.57 in Calm   5.0 mph 64 % 0.00 in
04:57 17.9 °F 8.0 °F 30.57 in ENE 1.0 mph 5.0 mph 65 % 0.00 in
05:12 17.8 °F 8.0 °F 30.56 in Calm   5.0 mph 66 % 0.00 in
05:27 17.7 °F 8.0 °F 30.57 in Calm   11.0 mph 66 % 0.00 in
05:42 17.6 °F 8.0 °F 30.57 in Calm   5.0 mph 66 % 0.00 in
05:57 17.5 °F 8.0 °F 30.57 in Calm   4.0 mph 66 % 0.00 in
06:12 17.5 °F 8.0 °F 30.57 in ENE 1.0 mph 9.0 mph 67 % 0.00 in
06:27 17.6 °F 8.0 °F 30.57 in ENE 1.0 mph 5.0 mph 67 % 0.00 in
06:43 17.8 °F 9.0 °F 30.57 in East 1.0 mph 7.0 mph 67 % 0.00 in
06:57 17.9 °F 9.0 °F 30.57 in NE 3.0 mph 7.0 mph 67 % 0.00 in
07:12 18.1 °F 9.0 °F 30.57 in ESE 1.0 mph 7.0 mph 67 % 0.00 in
07:29 18.3 °F 9.0 °F 30.58 in NE 1.0 mph 5.0 mph 67 % 0.00 in
07:35 18.4 °F 9.0 °F 30.58 in North 2.0 mph 6.0 mph 67 % 0.00 in
08:23 19.4 °F 10.0 °F 30.59 in East 2.0 mph 9.0 mph 66 % 0.00 in
08:38 19.9 °F 11.0 °F 30.59 in ENE 3.0 mph 6.0 mph 67 % 0.00 in
08:53 20.6 °F 11.0 °F 30.59 in South 2.0 mph 6.0 mph 66 % 0.00 in
09:08 21.0 °F 11.0 °F 30.59 in SSE 4.0 mph 6.0 mph 64 % 0.00 in
09:23 21.6 °F 11.0 °F 30.58 in South 2.0 mph 12.0 mph 64 % 0.00 in
09:38 21.8 °F 11.0 °F 30.57 in East 1.0 mph 8.0 mph 64 % 0.00 in
09:53 22.3 °F 12.0 °F 30.57 in SSE 6.0 mph 6.0 mph 64 % 0.00 in
10:08 22.6 °F 12.0 °F 30.57 in ENE 2.0 mph 5.0 mph 64 % 0.00 in
10:23 23.7 °F 13.0 °F 30.56 in Calm   8.0 mph 63 % 0.00 in
10:38 24.4 °F 13.0 °F 30.56 in SSE 1.0 mph 6.0 mph 62 % 0.00 in
10:53 25.0 °F 13.0 °F 30.56 in SSE 1.0 mph 8.0 mph 61 % 0.00 in
11:08 25.8 °F 14.0 °F 30.54 in NE 3.0 mph 7.0 mph 62 % 0.00 in
11:23 26.7 °F 14.0 °F 30.53 in North 3.0 mph 8.0 mph 59 % 0.00 in
11:30 27.7 °F 15.0 °F 30.53 in ENE 2.0 mph 6.0 mph 59 % 0.00 in
11:45 28.4 °F 14.0 °F 30.52 in ENE 3.0 mph 8.0 mph 55 % 0.00 in
12:00 29.3 °F 14.0 °F 30.50 in South 6.0 mph 9.0 mph 53 % 0.00 in
12:15 29.5 °F 13.0 °F 30.49 in SSE 1.0 mph 7.0 mph 51 % 0.00 in
12:30 29.6 °F 13.0 °F 30.48 in SE 4.0 mph 10.0 mph 51 % 0.00 in
12:45 30.3 °F 14.0 °F 30.47 in SSE 2.0 mph 11.0 mph 50 % 0.00 in
13:00 30.3 °F 13.0 °F 30.47 in South 1.0 mph 8.0 mph 49 % 0.00 in
13:15 30.8 °F 14.0 °F 30.46 in SSE 5.0 mph 7.0 mph 49 % 0.00 in
13:30 30.5 °F 13.0 °F 30.44 in Calm   9.0 mph 48 % 0.00 in
13:45 30.5 °F 13.0 °F 30.44 in SE 4.0 mph 10.0 mph 48 % 0.00 in
14:00 30.5 °F 13.0 °F 30.43 in Calm   10.0 mph 49 % 0.00 in
14:06 30.6 °F 13.0 °F 30.43 in East 3.0 mph 10.0 mph 48 % 0.00 in
14:21 30.7 °F 13.0 °F 30.43 in SE 1.0 mph 8.0 mph 47 % 0.00 in
14:36 30.9 °F 13.0 °F 30.42 in ESE 1.0 mph 6.0 mph 47 % 0.00 in
14:51 31.0 °F 13.0 °F 30.42 in SSE 2.0 mph 7.0 mph 47 % 0.00 in
15:06 31.1 °F 12.0 °F 30.42 in SSE 5.0 mph 5.0 mph 46 % 0.00 in
15:21 31.3 °F 13.0 °F 30.41 in SSE 2.0 mph 7.0 mph 47 % 0.00 in
15:37 31.2 °F 13.0 °F 30.40 in SSE 5.0 mph 6.0 mph 47 % 0.00 in
15:51 31.1 °F 13.0 °F 30.40 in South 2.0 mph 7.0 mph 47 % 0.00 in
16:06 31.0 °F 13.0 °F 30.40 in East 2.0 mph 6.0 mph 47 % 0.00 in
16:21 31.0 °F 13.0 °F 30.40 in South 7.0 mph 9.0 mph 47 % 0.00 in
16:36 31.0 °F 13.0 °F 30.39 in Calm   6.0 mph 47 % 0.00 in
16:51 31.0 °F 12.0 °F 30.39 in Calm   6.0 mph 46 % 0.00 in
17:06 31.0 °F 12.0 °F 30.39 in SSE 2.0 mph 7.0 mph 46 % 0.00 in
17:16 31.0 °F 12.0 °F 30.39 in Calm   9.0 mph 46 % 0.00 in
17:32 31.0 °F 12.0 °F 30.39 in South 5.0 mph 8.0 mph 46 % 0.00 in
17:46 31.0 °F 12.0 °F 30.37 in Calm   8.0 mph 46 % 0.00 in
18:01 31.0 °F 12.0 °F 30.38 in South 3.0 mph 8.0 mph 46 % 0.00 in
18:17 31.0 °F 12.0 °F 30.37 in ESE 1.0 mph 10.0 mph 46 % 0.00 in
18:32 31.0 °F 12.0 °F 30.37 in SSE 1.0 mph 10.0 mph 46 % 0.00 in
18:47 31.0 °F 12.0 °F 30.37 in SSE 2.0 mph 7.0 mph 46 % 0.00 in
19:02 31.1 °F 12.0 °F 30.36 in ESE 2.0 mph 7.0 mph 45 % 0.00 in
19:17 31.2 °F 11.0 °F 30.36 in SE 3.0 mph 9.0 mph 44 % 0.00 in
19:33 31.2 °F 11.0 °F 30.36 in South 1.0 mph 7.0 mph 44 % 0.00 in
19:47 31.4 °F 12.0 °F 30.36 in South 1.0 mph 7.0 mph 45 % 0.00 in
19:56 31.4 °F 12.0 °F 30.36 in South 3.0 mph 9.0 mph 44 % 0.00 in
20:04 31.5 °F 12.0 °F 30.35 in SSE 2.0 mph 10.0 mph 45 % 0.00 in
20:26 31.6 °F 13.0 °F 30.34 in ESE 1.0 mph 10.0 mph 46 % 0.00 in
20:42 31.6 °F 13.0 °F 30.33 in Calm   7.0 mph 47 % 0.00 in
20:57 31.8 °F 14.0 °F 30.33 in SE 3.0 mph 7.0 mph 48 % 0.00 in
21:18 31.9 °F 15.0 °F 30.33 in SSE 3.0 mph 7.0 mph 49 % 0.00 in
21:29 32.0 °F 15.0 °F 30.33 in West 1.0 mph 6.0 mph 49 % 0.00 in
21:42 32.2 °F 15.0 °F 30.33 in South 3.0 mph 7.0 mph 50 % 0.00 in
21:57 32.3 °F 16.0 °F 30.33 in SSE 4.0 mph 9.0 mph 51 % 0.00 in
22:12 32.5 °F 16.0 °F 30.33 in Calm   7.0 mph 51 % 0.00 in
22:27 32.6 °F 17.0 °F 30.33 in SSE 2.0 mph 5.0 mph 52 % 0.00 in
22:42 32.9 °F 17.0 °F 30.33 in Calm   5.0 mph 52 % 0.00 in
22:57 33.0 °F 17.0 °F 30.33 in SE 1.0 mph 4.0 mph 52 % 0.00 in
23:12 33.2 °F 17.0 °F 30.32 in Calm   6.0 mph 52 % 0.00 in
23:27 33.3 °F 17.0 °F 30.31 in ESE 1.0 mph 6.0 mph 52 % 0.00 in
23:42 33.4 °F 17.0 °F 30.30 in SE 1.0 mph 4.0 mph 52 % 0.00 in
23:57 33.4 °F 18.0 °F 30.30 in Calm   5.0 mph 53 % 0.00 in
Des Moines Weather and Climate
Compliments of Weather Underground - 3 mb

Script developed by  Jim McMurry - jmcmurry@mwt.net Adapted for the template by  Wim van der Kuil - Leuven-Template.eu

You find our weather info also at:

Weather Underground

Equipment we use:

Weather-station
Davis VP2 Plus

Weather-program
Davis Weatherlink.Com

Weather-server
iMac (Retina 4K, 21.5-inch, Late 2015)

Provider
Hostmonster.com

Davis VP2 Plus

Davis Weatherlink.Com

iMac (Retina 4K, 21.5-inch, Late 2015)

Hostmonster.com